createdAt,value
2022-12-16T00:01:56.031Z,138.63
2022-12-16T00:04:26.047Z,145.95
2022-12-16T00:06:55.962Z,148.63
2022-12-16T00:09:26.042Z,150.48
2022-12-16T00:11:56.280Z,150.80
2022-12-16T00:14:26.191Z,147.00
2022-12-16T00:16:56.613Z,145.40
2022-12-16T00:19:26.746Z,153.02
2022-12-16T00:21:57.029Z,149.45
2022-12-16T00:24:26.980Z,169.52
2022-12-16T00:26:57.605Z,151.18
2022-12-16T00:29:27.632Z,179.77
2022-12-16T00:31:57.830Z,164.70
2022-12-16T00:34:28.200Z,173.80
2022-12-16T00:36:58.325Z,166.68
2022-12-16T00:39:28.143Z,170.57
2022-12-16T00:41:58.077Z,180.07
2022-12-16T00:44:28.012Z,177.45
2022-12-16T00:46:57.916Z,180.98
2022-12-16T00:49:27.937Z,173.27
2022-12-16T00:52:00.957Z,175.93
2022-12-16T00:54:32.157Z,178.68
2022-12-16T00:57:02.189Z,176.75
2022-12-16T00:59:32.120Z,184.27
2022-12-16T01:02:02.291Z,179.88
2022-12-16T01:04:32.473Z,166.90
2022-12-16T01:07:02.452Z,160.05
2022-12-16T01:09:33.112Z,187.98
2022-12-16T01:14:32.151Z,169.25
2022-12-16T01:17:04.429Z,167.17
2022-12-16T01:19:35.336Z,168.95
2022-12-16T01:22:05.793Z,164.27
2022-12-16T01:24:35.928Z,167.27
2022-12-16T01:27:05.879Z,159.55
2022-12-16T01:29:35.774Z,151.68
2022-12-16T01:32:06.281Z,152.25
2022-12-16T01:34:51.042Z,159.60
2022-12-16T01:37:25.969Z,162.63
2022-12-16T01:39:55.879Z,162.32
2022-12-16T01:42:26.016Z,156.05
2022-12-16T01:44:58.135Z,190.50
2022-12-16T01:47:35.249Z,232.43
2022-12-16T01:50:10.250Z,218.65
2022-12-16T01:52:46.011Z,267.38
2022-12-16T01:55:37.137Z,221.43
2022-12-16T01:58:16.194Z,242.98
2022-12-16T02:00:46.504Z,234.32
2022-12-16T02:03:16.781Z,247.00
2022-12-16T02:05:48.656Z,250.95
2022-12-16T02:08:21.588Z,289.65
2022-12-16T02:14:32.952Z,299.42
2022-12-16T02:17:28.087Z,255.35
2022-12-16T02:20:18.047Z,249.35
2022-12-16T02:23:19.530Z,217.30
2022-12-16T02:26:11.604Z,249.80
2022-12-16T02:29:19.130Z,203.05
2022-12-16T02:32:07.881Z,184.25
2022-12-16T02:34:59.845Z,167.48
2022-12-16T02:37:45.137Z,159.95
2022-12-16T02:40:26.886Z,168.73
2022-12-16T02:43:06.829Z,175.77
2022-12-16T02:45:49.539Z,180.57
2022-12-16T02:48:19.411Z,184.52
2022-12-16T02:50:53.384Z,188.77
2022-12-16T02:53:23.898Z,196.50
2022-12-16T02:56:20.465Z,208.70
2022-12-16T02:59:20.584Z,199.77
2022-12-16T03:05:10.643Z,221.45
2022-12-16T03:07:43.124Z,221.23
2022-12-16T03:10:18.516Z,197.23
2022-12-16T03:12:49.038Z,192.07
2022-12-16T03:15:22.492Z,189.40
2022-12-16T03:21:02.217Z,195.60
2022-12-16T03:23:45.080Z,193.90
2022-12-16T03:26:24.008Z,193.68
2022-12-16T03:29:04.795Z,184.85
2022-12-16T03:31:57.613Z,193.32
2022-12-16T03:37:34.177Z,201.88
2022-12-16T05:00:47.934Z,140.20
2022-12-16T05:03:27.963Z,142.43
2022-12-16T05:06:08.003Z,143.40
2022-12-16T05:08:48.321Z,136.20
2022-12-16T05:11:28.380Z,149.63
2022-12-16T05:14:15.149Z,146.48
2022-12-16T05:16:58.733Z,155.73
2022-12-16T05:19:39.477Z,156.77
2022-12-16T05:22:19.059Z,161.95
2022-12-16T05:24:59.467Z,159.48
2022-12-16T05:30:20.421Z,143.55
2022-12-16T05:33:09.184Z,254.02
2022-12-16T05:35:50.138Z,134.23
2022-12-16T05:38:30.195Z,132.98
2022-12-16T05:41:10.551Z,131.98
2022-12-16T05:43:50.546Z,147.07
2022-12-16T05:46:30.947Z,140.10
2022-12-16T05:49:10.940Z,136.75
2022-12-16T05:51:51.463Z,152.32
2022-12-16T05:54:31.257Z,107.22
2022-12-16T05:57:11.557Z,96.40
2022-12-16T05:59:51.716Z,91.10
2022-12-16T06:02:32.024Z,104.60
2022-12-16T06:05:12.108Z,105.70
2022-12-16T06:07:52.318Z,92.60
2022-12-16T06:47:44.807Z,79.43
2022-12-16T08:25:47.110Z,95.88
2022-12-16T08:28:31.049Z,84.30
2022-12-16T08:31:11.171Z,95.57
2022-12-16T08:33:58.169Z,84.30
2022-12-16T08:36:41.535Z,93.47
2022-12-16T08:55:03.112Z,73.85
2022-12-16T08:57:42.774Z,62.20
2022-12-16T09:00:23.274Z,73.38
2022-12-16T09:03:13.235Z,63.70
2022-12-16T09:05:54.726Z,73.97
2022-12-16T09:42:39.965Z,114.50
2022-12-16T10:48:20.003Z,117.18
2022-12-16T10:51:00.105Z,104.45
2022-12-16T10:53:50.486Z,120.95
2022-12-16T10:57:10.698Z,127.15
2022-12-16T11:00:00.808Z,105.10
2022-12-16T11:02:51.139Z,152.30
2022-12-16T11:15:42.345Z,122.97
2022-12-16T11:18:32.117Z,136.98
2022-12-16T11:21:32.121Z,196.45
2022-12-16T11:24:33.112Z,124.78
2022-12-16T11:27:32.459Z,131.88
2022-12-16T11:30:23.104Z,136.20
2022-12-16T11:33:12.928Z,151.50
2022-12-16T11:36:03.109Z,149.63
2022-12-16T11:39:03.153Z,150.52
2022-12-16T11:41:54.073Z,133.85
2022-12-16T11:44:43.514Z,156.80
2022-12-16T11:47:43.804Z,160.40
2022-12-16T11:50:33.859Z,132.32
2022-12-16T11:53:14.080Z,152.70
2022-12-16T11:56:10.839Z,170.93
2022-12-16T11:59:04.561Z,146.00
2022-12-16T12:04:45.000Z,131.30
2022-12-16T12:07:45.997Z,127.93
2022-12-16T12:10:55.263Z,134.10
2022-12-16T12:14:15.362Z,152.17
2022-12-16T12:17:15.796Z,143.40
2022-12-16T12:20:15.773Z,143.63
2022-12-16T12:22:55.980Z,135.50
2022-12-16T12:26:16.094Z,130.50
2022-12-16T12:29:26.413Z,134.93
2022-12-16T12:32:46.474Z,152.35
2022-12-16T12:36:06.693Z,149.88
2022-12-16T12:39:26.866Z,150.10
2022-12-16T12:42:27.049Z,150.60
2022-12-16T12:45:37.204Z,147.07
2022-12-16T12:48:47.618Z,145.98
2022-12-16T12:51:57.637Z,139.27
2022-12-16T12:55:07.890Z,154.73
2022-12-16T12:57:58.050Z,154.65
2022-12-16T13:00:48.445Z,153.18
2022-12-16T13:03:58.365Z,162.05
2022-12-16T13:06:38.655Z,177.18
2022-12-16T13:09:48.684Z,178.52
2022-12-16T13:12:48.895Z,188.50
2022-12-16T13:15:59.052Z,191.73
2022-12-16T13:18:49.406Z,181.90
2022-12-16T13:21:59.452Z,176.15
2022-12-16T13:25:09.642Z,171.00
2022-12-16T13:28:09.766Z,159.43
2022-12-16T13:30:50.065Z,165.73
2022-12-16T13:33:50.104Z,155.07
2022-12-16T13:36:40.382Z,161.40
2022-12-16T13:39:40.482Z,151.18
2022-12-16T13:42:50.756Z,157.63
2022-12-16T13:45:50.947Z,162.93
2022-12-16T13:48:51.045Z,143.70
2022-12-16T13:52:11.249Z,150.25
2022-12-16T13:55:11.456Z,152.90
2022-12-16T13:58:01.601Z,164.75
2022-12-16T14:00:52.627Z,167.23
2022-12-16T14:03:42.015Z,162.98
2022-12-16T14:06:32.224Z,178.05
2022-12-16T14:09:12.314Z,301.35
2022-12-16T14:12:22.439Z,321.20
2022-12-16T14:15:12.604Z,303.55
2022-12-16T14:18:12.845Z,255.77
2022-12-16T14:21:02.969Z,204.63
2022-12-16T14:23:57.659Z,191.88
2022-12-16T14:26:43.294Z,148.48
2022-12-16T14:29:43.496Z,158.80
2022-12-16T14:32:43.659Z,154.60
2022-12-16T14:35:33.958Z,155.13
2022-12-16T14:38:44.032Z,143.60
2022-12-16T14:41:44.199Z,152.82
2022-12-16T14:44:34.554Z,152.02
2022-12-16T14:47:14.648Z,141.70
2022-12-16T14:50:14.990Z,149.77
2022-12-16T14:52:54.941Z,148.35
2022-12-16T14:55:54.853Z,143.63
2022-12-16T14:58:45.150Z,146.57
2022-12-16T15:01:40.709Z,123.53
2022-12-16T15:04:35.239Z,135.38
2022-12-16T15:07:30.791Z,133.63
2022-12-16T15:10:15.321Z,141.23
2022-12-16T15:13:05.202Z,151.43
2022-12-16T15:16:05.283Z,150.82
2022-12-16T15:18:55.235Z,154.60
2022-12-16T15:21:45.581Z,170.85
2022-12-16T15:24:35.544Z,157.10
2022-12-16T15:27:46.681Z,181.20
2022-12-16T15:31:05.939Z,165.82
2022-12-16T15:33:56.156Z,174.10
2022-12-16T15:36:46.253Z,170.25
2022-12-16T15:39:46.824Z,180.45
2022-12-16T15:45:47.007Z,166.80
2022-12-16T15:48:47.129Z,160.77
2022-12-16T15:51:57.328Z,181.02
2022-12-16T15:54:37.468Z,184.18
2022-12-16T15:57:47.696Z,190.25
2022-12-16T16:00:38.001Z,184.55
2022-12-16T16:03:38.444Z,184.95
2022-12-16T16:06:28.081Z,180.68
2022-12-16T16:09:08.237Z,172.13
2022-12-16T16:11:48.580Z,146.20
2022-12-16T16:14:29.127Z,149.10
2022-12-16T16:19:49.012Z,149.40
2022-12-16T16:22:39.015Z,152.18
2022-12-16T16:25:19.229Z,150.82
2022-12-16T16:27:59.313Z,150.35
2022-12-16T16:30:43.186Z,149.82
2022-12-16T16:33:29.843Z,153.95
2022-12-16T16:36:10.013Z,148.20
2022-12-16T16:38:50.035Z,170.82
2022-12-16T16:41:30.325Z,153.73
2022-12-16T16:44:12.877Z,182.27
2022-12-16T16:47:00.741Z,174.43
2022-12-16T16:49:50.667Z,152.50
2022-12-16T16:52:41.075Z,164.80
2022-12-16T16:55:41.090Z,174.40
2022-12-16T16:58:31.264Z,165.13
2022-12-16T17:01:20.686Z,179.23
2022-12-16T17:04:01.791Z,181.32
2022-12-16T17:06:41.707Z,148.00
2022-12-16T17:09:21.981Z,183.87
2022-12-16T17:12:02.117Z,172.50
2022-12-16T17:14:42.278Z,181.80
2022-12-16T17:17:22.583Z,159.52
2022-12-16T17:20:02.589Z,160.85
2022-12-16T17:22:42.689Z,175.30
2022-12-16T17:25:23.061Z,159.90
2022-12-16T17:28:03.017Z,193.18
2022-12-16T17:30:47.281Z,174.18
2022-12-16T17:33:33.552Z,180.25
2022-12-16T17:36:14.459Z,169.60
2022-12-16T17:39:03.737Z,184.80
2022-12-16T17:41:53.953Z,161.93
2022-12-16T17:44:33.987Z,174.40
2022-12-16T17:47:14.247Z,177.98
2022-12-16T17:50:04.338Z,177.80
2022-12-16T17:52:45.587Z,190.35
2022-12-16T17:55:38.601Z,173.82
2022-12-16T17:58:25.082Z,158.55
2022-12-16T18:01:05.004Z,160.80
2022-12-16T18:03:46.065Z,164.10
2022-12-16T18:06:35.347Z,150.95
2022-12-16T18:09:15.568Z,150.50
2022-12-16T18:11:55.643Z,147.88
2022-12-16T18:14:35.913Z,158.82
2022-12-16T18:17:16.017Z,156.75
2022-12-16T18:19:56.204Z,137.10
2022-12-16T18:22:36.313Z,143.82
2022-12-16T18:25:17.022Z,141.48
2022-12-16T18:27:56.606Z,147.18
2022-12-16T18:30:36.906Z,148.00
2022-12-16T18:33:16.953Z,150.13
2022-12-16T18:35:58.928Z,152.13
2022-12-16T18:38:47.347Z,175.60
2022-12-16T18:41:37.541Z,166.75
2022-12-16T18:44:27.600Z,153.65
2022-12-16T18:47:17.754Z,161.90
2022-12-16T18:49:58.028Z,150.65
2022-12-16T18:52:38.286Z,147.40
2022-12-16T18:55:28.464Z,169.88
2022-12-16T18:58:21.132Z,151.60
2022-12-16T19:01:18.730Z,158.68
2022-12-16T19:03:58.947Z,154.93
2022-12-16T19:06:39.066Z,155.07
2022-12-16T19:09:19.301Z,153.23
2022-12-16T19:11:59.309Z,165.90
2022-12-16T19:14:48.783Z,155.25
2022-12-16T19:17:29.802Z,160.35
2022-12-16T19:20:09.904Z,176.05
2022-12-16T19:22:49.990Z,153.48
2022-12-16T19:25:30.284Z,159.05
2022-12-16T19:28:10.262Z,151.50
2022-12-16T19:30:51.764Z,164.27
2022-12-16T19:33:40.617Z,142.27
2022-12-16T19:36:20.991Z,144.98
2022-12-16T19:39:00.929Z,139.35
2022-12-16T19:41:41.194Z,142.50
2022-12-16T19:44:21.368Z,147.77
2022-12-16T19:47:01.460Z,148.40
2022-12-16T19:49:44.326Z,143.80
2022-12-16T19:52:31.826Z,147.40
2022-12-16T19:55:16.891Z,136.35
2022-12-16T19:58:02.124Z,148.35
2022-12-16T20:00:51.400Z,136.25
2022-12-16T20:03:32.536Z,138.05
2022-12-16T20:08:52.914Z,142.07
2022-12-16T20:11:43.017Z,146.13
2022-12-16T20:14:33.295Z,142.15
2022-12-16T20:17:13.305Z,150.25
2022-12-16T20:19:53.666Z,141.75
2022-12-16T20:22:43.609Z,147.02
2022-12-16T20:25:23.959Z,140.20
2022-12-16T20:28:03.908Z,144.85
2022-12-16T20:30:44.213Z,144.18
2022-12-16T20:33:34.412Z,151.18
2022-12-16T20:36:24.943Z,140.38
2022-12-16T20:39:04.686Z,153.75
2022-12-16T20:41:44.893Z,145.63
2022-12-16T20:44:24.901Z,161.20
2022-12-16T20:47:14.337Z,154.15
2022-12-16T20:49:55.248Z,159.10
2022-12-16T20:52:46.394Z,161.77
2022-12-16T20:55:35.532Z,178.82
2022-12-16T20:58:15.755Z,158.18
2022-12-16T21:00:56.408Z,171.18
2022-12-16T21:06:26.245Z,157.30
2022-12-16T21:09:06.519Z,144.93
2022-12-16T21:11:46.540Z,146.80
2022-12-16T21:14:26.866Z,142.85
2022-12-16T21:17:06.883Z,147.35
2022-12-16T21:19:47.146Z,149.68
2022-12-16T21:22:27.214Z,149.45
2022-12-16T21:25:08.289Z,144.45
2022-12-16T21:27:57.545Z,142.13
2022-12-16T21:30:47.812Z,153.73
2022-12-16T21:33:37.904Z,146.63
2022-12-16T21:36:28.634Z,149.23
2022-12-16T21:39:09.247Z,152.90
2022-12-16T21:41:58.493Z,149.70
2022-12-16T21:44:38.588Z,141.02
2022-12-16T21:47:18.903Z,150.20
2022-12-16T21:49:58.874Z,149.80
2022-12-16T21:52:39.129Z,157.45
2022-12-16T21:55:19.256Z,140.45
2022-12-16T21:57:59.445Z,163.23
2022-12-16T22:00:39.550Z,156.38
2022-12-16T22:03:19.749Z,137.98
2022-12-16T22:05:59.863Z,152.75
2022-12-16T22:08:40.114Z,150.35
2022-12-16T22:11:30.214Z,141.35
2022-12-16T22:14:10.424Z,147.57
2022-12-16T22:16:50.532Z,146.90
2022-12-16T22:19:40.795Z,149.70
2022-12-16T22:22:20.910Z,140.20
2022-12-16T22:25:01.070Z,134.05
2022-12-16T22:27:41.225Z,143.10
2022-12-16T22:30:31.531Z,144.70
2022-12-16T22:33:11.528Z,131.85
2022-12-16T22:35:52.393Z,130.20
2022-12-16T22:38:41.847Z,128.95
2022-12-16T22:41:22.605Z,130.77
2022-12-16T22:46:42.509Z,149.10
2022-12-16T22:49:22.519Z,166.85
2022-12-16T22:52:02.797Z,193.00
2022-12-16T22:54:42.823Z,172.35
2022-12-16T22:57:23.058Z,161.35
2022-12-16T23:00:03.158Z,164.02
2022-12-16T23:02:43.345Z,149.82
2022-12-16T23:05:27.557Z,154.82
2022-12-16T23:08:13.645Z,149.07
2022-12-16T23:10:53.806Z,157.65
2022-12-16T23:13:44.161Z,151.02
2022-12-16T23:16:24.184Z,147.85
2022-12-16T23:19:04.341Z,149.43
2022-12-16T23:21:44.446Z,137.45
2022-12-16T23:24:24.753Z,150.73
2022-12-16T23:27:04.751Z,138.15
2022-12-16T23:29:44.983Z,153.25
2022-12-16T23:32:25.074Z,160.02
2022-12-16T23:38:25.432Z,136.55
2022-12-16T23:41:15.713Z,146.52
2022-12-16T23:43:55.718Z,152.40
2022-12-16T23:46:36.525Z,146.05
2022-12-16T23:49:16.039Z,149.68
2022-12-16T23:51:56.271Z,153.43
2022-12-16T23:54:36.364Z,159.00
2022-12-16T23:57:16.656Z,167.30
2022-12-16T23:59:56.686Z,138.43
